sensor_id;sensor_type;location;lat;lon;timestamp;temperature;humidity
1524;DHT22;755;53.658;10.118;2023-02-28T00:01:04;2.20;1.00
1524;DHT22;755;53.658;10.118;2023-02-28T00:11:07;2.00;1.00
1524;DHT22;755;53.658;10.118;2023-02-28T00:21:12;1.80;28.70
1524;DHT22;755;53.658;10.118;2023-02-28T00:31:14;1.60;91.20
1524;DHT22;755;53.658;10.118;2023-02-28T00:41:17;1.70;99.90
1524;DHT22;755;53.658;10.118;2023-02-28T00:51:20;1.60;99.90
1524;DHT22;755;53.658;10.118;2023-02-28T01:01:23;1.60;99.90
1524;DHT22;755;53.658;10.118;2023-02-28T01:11:26;1.60;99.90
1524;DHT22;755;53.658;10.118;2023-02-28T01:21:30;1.50;99.90
1524;DHT22;755;53.658;10.118;2023-02-28T01:31:32;1.50;99.90
1524;DHT22;755;53.658;10.118;2023-02-28T01:41:36;1.40;99.90
1524;DHT22;755;53.658;10.118;2023-02-28T01:51:41;1.30;99.90
1524;DHT22;755;53.658;10.118;2023-02-28T02:01:47;1.40;99.90
1524;DHT22;755;53.658;10.118;2023-02-28T02:11:50;1.10;99.90
1524;DHT22;755;53.658;10.118;2023-02-28T02:22:17;1.10;99.90
1524;DHT22;755;53.658;10.118;2023-02-28T02:32:38;1.30;99.90
1524;DHT22;755;53.658;10.118;2023-02-28T02:42:50;1.20;99.90
1524;DHT22;755;53.658;10.118;2023-02-28T02:52:58;1.30;99.90
1524;DHT22;755;53.658;10.118;2023-02-28T03:03:04;1.20;99.90
1524;DHT22;755;53.658;10.118;2023-02-28T03:13:18;0.80;99.90
1524;DHT22;755;53.658;10.118;2023-02-28T03:23:27;0.50;99.90
1524;DHT22;755;53.658;10.118;2023-02-28T03:33:43;0.20;99.90
1524;DHT22;755;53.658;10.118;2023-02-28T03:43:52;-0.10;99.90
1524;DHT22;755;53.658;10.118;2023-02-28T03:53:58;-0.20;99.90
1524;DHT22;755;53.658;10.118;2023-02-28T04:04:03;-0.30;99.90
1524;DHT22;755;53.658;10.118;2023-02-28T04:14:07;-0.50;99.90
1524;DHT22;755;53.658;10.118;2023-02-28T04:24:13;-0.40;99.90
1524;DHT22;755;53.658;10.118;2023-02-28T04:34:15;-0.50;99.90
1524;DHT22;755;53.658;10.118;2023-02-28T04:44:21;-0.60;99.90
1524;DHT22;755;53.658;10.118;2023-02-28T04:54:23;-0.70;99.90
1524;DHT22;755;53.658;10.118;2023-02-28T05:04:27;-0.90;99.90
1524;DHT22;755;53.658;10.118;2023-02-28T05:14:29;-1.00;99.90
1524;DHT22;755;53.658;10.118;2023-02-28T05:24:32;-1.00;99.90
1524;DHT22;755;53.658;10.118;2023-02-28T05:34:35;-1.00;99.90
1524;DHT22;755;53.658;10.118;2023-02-28T05:44:39;-1.20;99.90
1524;DHT22;755;53.658;10.118;2023-02-28T05:54:41;-1.30;99.90
1524;DHT22;755;53.658;10.118;2023-02-28T06:04:45;-1.20;99.90
1524;DHT22;755;53.658;10.118;2023-02-28T06:14:47;-1.30;99.90
1524;DHT22;755;53.658;10.118;2023-02-28T06:24:51;-1.50;99.90
1524;DHT22;755;53.658;10.118;2023-02-28T06:34:54;-1.40;99.90
1524;DHT22;755;53.658;10.118;2023-02-28T06:44:59;-1.50;99.90
1524;DHT22;755;53.658;10.118;2023-02-28T06:55:05;-1.40;99.90
1524;DHT22;755;53.658;10.118;2023-02-28T07:05:09;-1.40;99.90
1524;DHT22;755;53.658;10.118;2023-02-28T07:15:11;-1.30;99.90
1524;DHT22;755;53.658;10.118;2023-02-28T07:25:14;-1.10;99.90
1524;DHT22;755;53.658;10.118;2023-02-28T07:35:16;-0.90;99.90
1524;DHT22;755;53.658;10.118;2023-02-28T07:45:20;-0.50;99.90
1524;DHT22;755;53.658;10.118;2023-02-28T07:55:22;0.40;99.90
1524;DHT22;755;53.658;10.118;2023-02-28T08:05:27;2.10;99.90
1524;DHT22;755;53.658;10.118;2023-02-28T08:15:31;1.20;52.00
1524;DHT22;755;53.658;10.118;2023-02-28T08:25:36;1.00;1.00
1524;DHT22;755;53.658;10.118;2023-02-28T08:35:39;3.10;1.00
1524;DHT22;755;53.658;10.118;2023-02-28T08:45:43;7.60;99.90
1524;DHT22;755;53.658;10.118;2023-02-28T08:55:45;5.70;1.00
1524;DHT22;755;53.658;10.118;2023-02-28T09:05:59;4.70;28.30
1524;DHT22;755;53.658;10.118;2023-02-28T09:16:02;4.00;99.90
1524;DHT22;755;53.658;10.118;2023-02-28T09:26:07;4.40;9.80
1524;DHT22;755;53.658;10.118;2023-02-28T09:36:09;4.70;1.00
1524;DHT22;755;53.658;10.118;2023-02-28T09:46:25;4.60;1.00
1524;DHT22;755;53.658;10.118;2023-02-28T09:56:36;5.50;1.00
1524;DHT22;755;53.658;10.118;2023-02-28T10:06:57;5.50;1.00
1524;DHT22;755;53.658;10.118;2023-02-28T10:17:10;5.60;1.00
1524;DHT22;755;53.658;10.118;2023-02-28T10:27:32;5.60;1.00
1524;DHT22;755;53.658;10.118;2023-02-28T10:37:38;5.40;1.00
1524;DHT22;755;53.658;10.118;2023-02-28T10:47:53;5.20;1.00
1524;DHT22;755;53.658;10.118;2023-02-28T10:58:02;5.00;1.00
1524;DHT22;755;53.658;10.118;2023-02-28T11:08:13;5.20;1.00
1524;DHT22;755;53.658;10.118;2023-02-28T11:18:22;5.30;1.00
1524;DHT22;755;53.658;10.118;2023-02-28T11:28:29;5.50;1.00
1524;DHT22;755;53.658;10.118;2023-02-28T11:38:34;5.60;99.90
1524;DHT22;755;53.658;10.118;2023-02-28T11:48:45;5.60;99.90
1524;DHT22;755;53.658;10.118;2023-02-28T11:58:54;5.70;99.90
1524;DHT22;755;53.658;10.118;2023-02-28T12:09:20;5.80;99.90
1524;DHT22;755;53.658;10.118;2023-02-28T12:19:28;6.00;99.90
1524;DHT22;755;53.658;10.118;2023-02-28T12:29:42;6.20;99.90
1524;DHT22;755;53.658;10.118;2023-02-28T12:39:48;6.20;99.90
1524;DHT22;755;53.658;10.118;2023-02-28T12:49:59;6.30;99.90
1524;DHT22;755;53.658;10.118;2023-02-28T13:00:10;6.50;99.90
1524;DHT22;755;53.658;10.118;2023-02-28T13:10:16;6.50;99.90
1524;DHT22;755;53.658;10.118;2023-02-28T13:20:21;6.50;99.90
1524;DHT22;755;53.658;10.118;2023-02-28T13:31:04;6.50;99.90
1524;DHT22;755;53.658;10.118;2023-02-28T13:41:40;6.50;99.90
1524;DHT22;755;53.658;10.118;2023-02-28T13:51:45;6.60;99.90
1524;DHT22;755;53.658;10.118;2023-02-28T14:01:59;6.50;99.90
1524;DHT22;755;53.658;10.118;2023-02-28T14:22:55;6.60;99.90
1524;DHT22;755;53.658;10.118;2023-02-28T14:33:17;6.60;99.90
1524;DHT22;755;53.658;10.118;2023-02-28T14:43:25;6.50;96.40
1524;DHT22;755;53.658;10.118;2023-02-28T14:53:30;6.60;94.60
1524;DHT22;755;53.658;10.118;2023-02-28T15:03:39;6.40;86.10
1524;DHT22;755;53.658;10.118;2023-02-28T15:13:44;6.40;72.10
1524;DHT22;755;53.658;10.118;2023-02-28T15:23:52;6.30;66.50
1524;DHT22;755;53.658;10.118;2023-02-28T15:33:57;6.20;59.00
1524;DHT22;755;53.658;10.118;2023-02-28T15:44:26;6.20;57.00
1524;DHT22;755;53.658;10.118;2023-02-28T15:54:33;6.10;56.50
1524;DHT22;755;53.658;10.118;2023-02-28T16:04:54;5.80;68.20
1524;DHT22;755;53.658;10.118;2023-02-28T16:14:59;5.70;40.70
1524;DHT22;755;53.658;10.118;2023-02-28T16:25:05;5.20;49.50
1524;DHT22;755;53.658;10.118;2023-02-28T16:35:10;4.60;97.70
1524;DHT22;755;53.658;10.118;2023-02-28T16:45:17;4.40;99.90
1524;DHT22;755;53.658;10.118;2023-02-28T16:55:21;4.00;99.90
1524;DHT22;755;53.658;10.118;2023-02-28T17:05:26;3.50;1.00
1524;DHT22;755;53.658;10.118;2023-02-28T17:15:29;3.00;1.00
1524;DHT22;755;53.658;10.118;2023-02-28T17:25:33;2.60;99.90
1524;DHT22;755;53.658;10.118;2023-02-28T17:35:35;2.30;99.90
1524;DHT22;755;53.658;10.118;2023-02-28T17:45:39;2.00;1.00
1524;DHT22;755;53.658;10.118;2023-02-28T17:55:41;1.70;1.00
1524;DHT22;755;53.658;10.118;2023-02-28T18:05:44;1.50;99.90
1524;DHT22;755;53.658;10.118;2023-02-28T18:15:47;1.30;99.90
1524;DHT22;755;53.658;10.118;2023-02-28T18:25:50;1.00;1.00
1524;DHT22;755;53.658;10.118;2023-02-28T18:35:56;0.80;99.90
1524;DHT22;755;53.658;10.118;2023-02-28T18:46:03;0.60;1.00
1524;DHT22;755;53.658;10.118;2023-02-28T18:56:06;0.40;1.00
1524;DHT22;755;53.658;10.118;2023-02-28T19:06:10;0.30;99.90
1524;DHT22;755;53.658;10.118;2023-02-28T19:16:14;0.10;99.90
1524;DHT22;755;53.658;10.118;2023-02-28T19:26:20;0.10;1.00
1524;DHT22;755;53.658;10.118;2023-02-28T19:36:23;0.10;99.90
1524;DHT22;755;53.658;10.118;2023-02-28T19:46:26;-0.30;99.90
1524;DHT22;755;53.658;10.118;2023-02-28T19:56:29;-0.30;1.00
1524;DHT22;755;53.658;10.118;2023-02-28T20:06:33;-0.30;1.00
1524;DHT22;755;53.658;10.118;2023-02-28T20:16:35;-0.40;1.00
1524;DHT22;755;53.658;10.118;2023-02-28T20:26:39;-0.30;81.10
1524;DHT22;755;53.658;10.118;2023-02-28T20:36:41;-0.50;99.90
1524;DHT22;755;53.658;10.118;2023-02-28T20:46:45;-0.60;99.90
1524;DHT22;755;53.658;10.118;2023-02-28T20:56:47;-0.60;99.90
1524;DHT22;755;53.658;10.118;2023-02-28T21:06:51;-0.60;1.00
1524;DHT22;755;53.658;10.118;2023-02-28T21:16:53;-0.70;99.90
1524;DHT22;755;53.658;10.118;2023-02-28T21:27:01;-0.50;1.00
1524;DHT22;755;53.658;10.118;2023-02-28T21:37:07;-0.90;1.00
1524;DHT22;755;53.658;10.118;2023-02-28T21:47:10;-1.00;1.00
1524;DHT22;755;53.658;10.118;2023-02-28T21:57:12;-0.90;75.70
1524;DHT22;755;53.658;10.118;2023-02-28T22:07:16;-0.90;91.80
1524;DHT22;755;53.658;10.118;2023-02-28T22:17:18;-1.00;96.40
1524;DHT22;755;53.658;10.118;2023-02-28T22:27:22;-1.00;99.90
1524;DHT22;755;53.658;10.118;2023-02-28T22:37:24;-1.10;99.90
1524;DHT22;755;53.658;10.118;2023-02-28T22:47:27;-1.20;99.90
1524;DHT22;755;53.658;10.118;2023-02-28T22:57:29;-1.20;99.90
1524;DHT22;755;53.658;10.118;2023-02-28T23:07:34;-1.20;99.90
1524;DHT22;755;53.658;10.118;2023-02-28T23:17:36;-1.30;99.90
1524;DHT22;755;53.658;10.118;2023-02-28T23:27:40;-1.30;99.90
1524;DHT22;755;53.658;10.118;2023-02-28T23:37:42;-1.30;99.90
1524;DHT22;755;53.658;10.118;2023-02-28T23:47:45;-1.40;99.90
1524;DHT22;755;53.658;10.118;2023-02-28T23:57:47;-1.50;99.90
